createdAt,value
2023-04-07T00:00:32.332Z,5.10
2023-04-07T00:03:02.397Z,5.10
2023-04-07T00:05:30.649Z,5.00
2023-04-07T00:07:58.785Z,5.10
2023-04-07T00:10:27.313Z,5.00
2023-04-07T00:12:55.366Z,5.20
2023-04-07T00:15:24.778Z,5.20
2023-04-07T00:17:52.980Z,5.30
2023-04-07T00:20:21.282Z,5.40
2023-04-07T00:22:49.297Z,5.20
2023-04-07T00:25:17.632Z,5.30
2023-04-07T00:27:46.030Z,5.40
2023-04-07T00:30:15.318Z,5.60
2023-04-07T00:32:45.504Z,5.40
2023-04-07T00:35:13.657Z,5.40
2023-04-07T00:37:41.988Z,5.40
2023-04-07T00:40:11.272Z,5.50
2023-04-07T00:42:39.522Z,5.40
2023-04-07T00:45:08.648Z,5.70
2023-04-07T00:47:36.810Z,5.50
2023-04-07T00:50:07.701Z,5.50
2023-04-07T00:52:35.851Z,5.60
2023-04-07T00:55:03.874Z,5.70
2023-04-07T00:57:32.002Z,5.40
2023-04-07T01:00:00.240Z,5.40
2023-04-07T01:02:35.149Z,5.40
2023-04-07T01:05:11.435Z,5.50
2023-04-07T01:07:51.911Z,5.50
2023-04-07T01:10:25.528Z,5.90
2023-04-07T01:13:02.257Z,5.50
2023-04-07T01:15:32.078Z,5.50
2023-04-07T01:18:08.543Z,5.80
2023-04-07T01:20:39.787Z,5.50
2023-04-07T01:23:09.437Z,5.60
2023-04-07T01:25:55.086Z,5.60
2023-04-07T01:28:42.892Z,5.60
2023-04-07T01:31:14.465Z,5.80
2023-04-07T01:33:46.417Z,5.80
2023-04-07T01:39:00.734Z,5.70
2023-04-07T01:41:29.825Z,5.70
2023-04-07T01:43:58.608Z,5.60
2023-04-07T01:46:28.299Z,5.60
2023-04-07T01:48:58.184Z,5.60
2023-04-07T01:51:27.532Z,5.40
2023-04-07T01:53:56.381Z,5.60
2023-04-07T01:56:24.674Z,5.60
2023-04-07T01:58:52.765Z,5.40
2023-04-07T02:01:21.222Z,5.50
2023-04-07T02:03:56.405Z,5.50
2023-04-07T02:06:29.261Z,5.40
2023-04-07T02:09:01.627Z,5.30
2023-04-07T02:11:33.621Z,5.40
2023-04-07T02:14:03.850Z,5.40
2023-04-07T02:16:33.880Z,5.40
2023-04-07T02:19:04.580Z,5.40
2023-04-07T02:21:34.396Z,5.30
2023-04-07T02:24:02.779Z,5.30
2023-04-07T02:26:35.563Z,5.40
2023-04-07T02:29:03.817Z,5.30
2023-04-07T02:31:32.665Z,5.30
2023-04-07T02:34:01.050Z,5.40
2023-04-07T02:36:31.390Z,5.30
2023-04-07T02:38:59.841Z,5.40
2023-04-07T02:41:28.395Z,5.40
2023-04-07T02:43:56.839Z,5.50
2023-04-07T02:46:26.097Z,5.50
2023-04-07T02:48:54.257Z,5.50
2023-04-07T02:51:22.567Z,5.50
2023-04-07T02:53:52.945Z,5.90
2023-04-07T02:56:21.363Z,5.80
2023-04-07T02:58:49.470Z,5.50
2023-04-07T03:01:17.647Z,4.90
2023-04-07T03:03:47.735Z,5.50
2023-04-07T03:06:16.211Z,5.60
2023-04-07T03:08:44.293Z,5.60
2023-04-07T03:11:13.690Z,5.50
2023-04-07T03:13:41.925Z,5.50
2023-04-07T03:16:09.966Z,5.50
2023-04-07T03:18:37.916Z,5.40
2023-04-07T03:21:05.992Z,5.50
2023-04-07T03:23:34.027Z,5.40
2023-04-07T03:26:02.012Z,5.50
2023-04-07T03:28:32.143Z,5.40
2023-04-07T03:31:00.359Z,5.40
2023-04-07T03:33:28.732Z,5.30
2023-04-07T03:35:56.855Z,5.30
2023-04-07T03:38:25.006Z,5.40
2023-04-07T03:40:53.014Z,5.30
2023-04-07T03:43:21.068Z,5.40
2023-04-07T03:45:50.677Z,5.30
2023-04-07T03:48:18.720Z,5.20
2023-04-07T03:50:47.322Z,5.30
2023-04-07T03:53:16.780Z,5.10
2023-04-07T03:55:44.987Z,5.20
2023-04-07T03:58:13.303Z,5.00
2023-04-07T04:00:41.594Z,5.10
2023-04-07T04:03:11.870Z,5.20
2023-04-07T04:05:40.801Z,5.10
2023-04-07T04:08:09.091Z,5.20
2023-04-07T04:10:37.188Z,6.20
2023-04-07T04:13:07.317Z,5.00
2023-04-07T04:15:35.588Z,5.00
2023-04-07T04:18:03.770Z,5.00
2023-04-07T04:20:33.310Z,5.00
2023-04-07T04:23:01.713Z,5.00
2023-04-07T04:25:29.957Z,4.90
2023-04-07T04:27:58.006Z,5.00
2023-04-07T04:30:26.137Z,4.90
2023-04-07T04:32:54.436Z,5.00
2023-04-07T04:35:22.495Z,5.00
2023-04-07T04:37:52.155Z,5.00
2023-04-07T04:40:20.473Z,4.90
2023-04-07T04:42:48.534Z,4.80
2023-04-07T04:45:16.724Z,5.30
2023-04-07T04:47:44.855Z,4.80
2023-04-07T04:50:13.149Z,5.00
2023-04-07T04:52:41.248Z,4.90
2023-04-07T04:55:13.953Z,4.90
2023-04-07T04:57:42.593Z,5.20
2023-04-07T05:00:11.847Z,4.90
2023-04-07T05:02:40.149Z,5.00
2023-04-07T05:05:09.198Z,5.00
2023-04-07T05:07:37.363Z,4.90
2023-04-07T05:10:06.369Z,5.10
2023-04-07T05:12:35.832Z,5.00
2023-04-07T05:15:04.008Z,5.00
2023-04-07T06:22:11.157Z,5.40
2023-04-07T06:24:39.708Z,5.40
2023-04-07T06:27:07.796Z,5.40
2023-04-07T06:29:36.652Z,5.30
2023-04-07T06:32:04.631Z,5.40
2023-04-07T06:34:32.553Z,5.30
2023-04-07T06:37:01.613Z,5.30
2023-04-07T06:39:32.728Z,5.40
2023-04-07T06:42:01.712Z,5.50
2023-04-07T06:44:29.766Z,5.50
2023-04-07T06:46:57.815Z,5.60
2023-04-07T06:49:26.163Z,5.60
2023-04-07T06:51:54.311Z,5.70
2023-04-07T06:54:22.377Z,5.90
2023-04-07T06:56:53.572Z,5.90
2023-04-07T06:59:22.629Z,5.90
2023-04-07T07:01:51.644Z,5.90
2023-04-07T07:04:19.862Z,5.90
2023-04-07T07:06:48.196Z,6.00
2023-04-07T07:09:16.478Z,6.30
2023-04-07T07:11:44.694Z,5.70
2023-04-07T07:14:14.229Z,6.20
2023-04-07T07:16:42.435Z,6.10
2023-04-07T07:19:10.769Z,6.20
2023-04-07T07:21:38.761Z,6.40
2023-04-07T07:26:49.675Z,6.60
2023-04-07T07:29:19.236Z,6.40
2023-04-07T07:31:47.325Z,6.30
2023-04-07T07:34:15.546Z,6.40
2023-04-07T07:36:43.617Z,6.50
2023-04-07T07:39:12.058Z,6.50
2023-04-07T07:41:40.059Z,6.60
2023-04-07T07:44:08.203Z,6.50
2023-04-07T07:46:37.718Z,6.50
2023-04-07T07:49:06.225Z,6.70
2023-04-07T07:51:34.323Z,6.80
2023-04-07T07:54:02.744Z,7.00
2023-04-07T07:56:34.589Z,7.00
2023-04-07T07:59:02.705Z,6.90
2023-04-07T08:01:30.729Z,7.10
2023-04-07T08:04:00.576Z,7.00
2023-04-07T08:06:29.251Z,6.90
2023-04-07T08:08:57.645Z,7.00
2023-04-07T08:11:25.880Z,7.10
2023-04-07T08:13:54.285Z,7.00
2023-04-07T08:16:23.785Z,7.00
2023-04-07T08:18:51.933Z,7.10
2023-04-07T08:21:21.462Z,7.00
2023-04-07T08:23:49.797Z,7.10
2023-04-07T08:26:18.247Z,7.10
2023-04-07T08:28:46.372Z,7.40
2023-04-07T08:31:14.487Z,7.50
2023-04-07T08:33:42.836Z,7.60
2023-04-07T08:36:10.859Z,7.80
2023-04-07T08:38:40.689Z,8.00
2023-04-07T08:41:11.767Z,8.00
2023-04-07T08:43:41.310Z,8.00
2023-04-07T08:46:17.091Z,8.30
2023-04-07T08:48:46.207Z,8.30
2023-04-07T08:51:16.912Z,8.40
2023-04-07T08:53:51.284Z,8.60
2023-04-07T08:56:19.812Z,8.80
2023-04-07T08:58:49.178Z,8.90
2023-04-07T09:01:18.524Z,8.80
2023-04-07T09:03:47.940Z,8.90
2023-04-07T09:06:16.918Z,8.90
2023-04-07T09:08:46.541Z,8.80
2023-04-07T09:11:14.790Z,8.90
2023-04-07T09:13:42.990Z,9.10
2023-04-07T09:16:11.171Z,9.80
2023-04-07T09:18:39.761Z,9.20
2023-04-07T09:21:08.193Z,9.30
2023-04-07T09:23:38.469Z,9.60
2023-04-07T09:26:24.502Z,9.70
2023-04-07T09:28:55.797Z,9.60
2023-04-07T09:31:26.412Z,9.50
2023-04-07T09:33:55.531Z,9.30
2023-04-07T09:36:27.122Z,9.50
2023-04-07T09:38:55.730Z,9.70
2023-04-07T09:41:31.167Z,10.00
2023-04-07T09:43:59.499Z,10.20
2023-04-07T09:46:29.336Z,10.60
2023-04-07T09:49:05.253Z,10.40
2023-04-07T09:51:34.390Z,10.60
2023-04-07T09:54:02.849Z,10.50
2023-04-07T09:56:32.978Z,11.40
2023-04-07T09:59:02.879Z,10.50
2023-04-07T10:01:31.278Z,10.20
2023-04-07T10:04:01.251Z,10.50
2023-04-07T10:06:30.912Z,10.90
2023-04-07T10:09:04.072Z,10.70
2023-04-07T10:11:34.406Z,10.70
2023-04-07T10:14:02.673Z,10.70
2023-04-07T10:16:31.682Z,10.70
2023-04-07T10:18:59.974Z,10.90
2023-04-07T10:21:28.945Z,11.00
2023-04-07T10:24:08.510Z,11.00
2023-04-07T10:26:41.820Z,11.00
2023-04-07T10:29:13.699Z,10.90
2023-04-07T10:31:42.462Z,10.90
2023-04-07T10:34:12.368Z,9.80
2023-04-07T10:37:13.433Z,10.80
2023-04-07T10:39:41.854Z,11.00
2023-04-07T10:42:52.346Z,11.20
2023-04-07T10:46:00.549Z,11.70
2023-04-07T10:48:33.373Z,11.60
2023-04-07T10:51:19.013Z,11.20
2023-04-07T10:54:22.369Z,10.80
2023-04-07T10:57:13.470Z,11.20
2023-04-07T11:00:18.560Z,11.40
2023-04-07T11:02:46.980Z,11.80
2023-04-07T11:05:23.963Z,11.70
2023-04-07T11:07:57.660Z,11.70
2023-04-07T11:10:26.350Z,11.70
2023-04-07T11:13:07.619Z,11.80
2023-04-07T11:15:39.374Z,12.00
2023-04-07T11:18:19.826Z,12.30
2023-04-07T11:20:50.776Z,12.70
2023-04-07T11:23:21.019Z,12.60
2023-04-07T11:25:51.208Z,12.60
2023-04-07T11:28:20.850Z,12.20
2023-04-07T11:30:54.394Z,11.90
2023-04-07T11:33:24.566Z,12.10
2023-04-07T11:35:55.617Z,12.10
2023-04-07T11:38:26.457Z,12.50
2023-04-07T11:40:56.040Z,12.00
2023-04-07T11:43:27.710Z,13.00
2023-04-07T11:46:07.600Z,12.90
2023-04-07T11:48:37.246Z,12.90
2023-04-07T11:51:09.711Z,13.20
2023-04-07T11:53:39.912Z,13.40
2023-04-07T11:56:10.069Z,13.40
2023-04-07T11:58:40.052Z,13.30
2023-04-07T12:01:09.566Z,13.20
2023-04-07T12:03:39.079Z,13.20
2023-04-07T12:06:07.463Z,13.10
2023-04-07T12:08:39.858Z,12.80
2023-04-07T12:11:09.288Z,13.10
2023-04-07T12:13:39.639Z,13.00
2023-04-07T12:16:07.999Z,13.10
2023-04-07T12:18:36.623Z,13.20
2023-04-07T12:21:05.522Z,13.30
2023-04-07T12:23:33.583Z,12.90
2023-04-07T12:26:02.411Z,13.00
2023-04-07T12:28:30.688Z,12.80
2023-04-07T12:31:00.402Z,11.10
2023-04-07T12:33:28.664Z,13.00
2023-04-07T12:35:57.132Z,13.10
2023-04-07T12:38:25.565Z,13.30
2023-04-07T12:40:54.042Z,13.10
2023-04-07T12:43:22.141Z,12.90
2023-04-07T12:45:50.430Z,12.80
2023-04-07T12:48:19.994Z,12.90
2023-04-07T12:50:48.313Z,13.00
2023-04-07T12:53:16.619Z,13.30
2023-04-07T12:55:44.623Z,13.10
2023-04-07T12:58:13.299Z,13.10
2023-04-07T13:00:41.731Z,13.10
2023-04-07T13:03:10.066Z,13.10
2023-04-07T13:05:39.790Z,12.80
2023-04-07T13:08:08.162Z,12.70
2023-04-07T13:10:36.333Z,12.70
2023-04-07T13:13:04.489Z,12.40
2023-04-07T13:15:32.605Z,12.30
2023-04-07T13:18:00.825Z,12.10
2023-04-07T13:20:30.403Z,12.20
2023-04-07T13:23:07.531Z,12.10
2023-04-07T13:25:37.744Z,12.00
2023-04-07T13:28:06.581Z,12.30
2023-04-07T13:30:34.868Z,11.90
2023-04-07T13:33:03.194Z,11.90
2023-04-07T13:35:35.599Z,10.80
2023-04-07T13:38:05.577Z,11.90
2023-04-07T13:40:33.679Z,12.00
2023-04-07T13:43:01.935Z,11.90
2023-04-07T13:45:30.265Z,12.10
2023-04-07T13:47:58.616Z,12.10
2023-04-07T13:50:27.252Z,12.30
2023-04-07T13:52:55.394Z,11.30
2023-04-07T13:55:24.799Z,12.10
2023-04-07T13:57:52.802Z,12.30
2023-04-07T14:00:21.365Z,12.30
2023-04-07T14:02:50.306Z,12.20
2023-04-07T14:05:18.564Z,12.10
2023-04-07T14:07:46.648Z,12.10
2023-04-07T14:10:14.887Z,12.00
2023-04-07T14:12:44.268Z,12.00
2023-04-07T14:15:12.545Z,12.10
2023-04-07T14:17:40.618Z,12.10
2023-04-07T14:20:10.574Z,12.20
2023-04-07T14:22:38.596Z,12.20
2023-04-07T14:25:12.424Z,12.30
2023-04-07T14:27:44.738Z,12.40
2023-04-07T14:33:33.068Z,12.50
2023-04-07T14:36:16.215Z,12.40
2023-04-07T14:38:45.013Z,12.50
2023-04-07T14:41:13.351Z,12.40
2023-04-07T14:43:43.922Z,12.30
2023-04-07T14:46:14.940Z,12.40
2023-04-07T14:48:47.215Z,12.10
2023-04-07T14:51:15.498Z,12.10
2023-04-07T14:53:43.862Z,12.00
2023-04-07T14:56:14.633Z,11.50
2023-04-07T14:58:43.446Z,11.90
2023-04-07T15:01:13.229Z,11.90
2023-04-07T15:03:44.395Z,12.00
2023-04-07T15:06:17.993Z,11.90
2023-04-07T15:08:46.788Z,11.80
2023-04-07T15:11:14.839Z,11.60
2023-04-07T15:13:43.924Z,11.50
2023-04-07T15:16:13.642Z,11.50
2023-04-07T15:18:47.200Z,11.50
2023-04-07T15:21:16.745Z,11.50
2023-04-07T15:23:48.039Z,11.40
2023-04-07T15:26:16.308Z,11.40
2023-04-07T15:28:44.607Z,11.50
2023-04-07T15:31:12.707Z,11.80
2023-04-07T15:33:41.611Z,11.40
2023-04-07T15:36:10.112Z,11.40
2023-04-07T15:38:43.843Z,11.40
2023-04-07T15:41:15.906Z,11.40
2023-04-07T15:43:43.950Z,11.50
2023-04-07T15:46:17.756Z,11.40
2023-04-07T15:48:49.028Z,11.30
2023-04-07T15:53:54.255Z,11.30
2023-04-07T16:07:00.488Z,11.20
2023-04-07T16:09:30.003Z,11.10
2023-04-07T16:11:58.126Z,11.10
2023-04-07T16:14:29.029Z,11.30
2023-04-07T16:16:59.191Z,11.10
2023-04-07T16:19:27.518Z,11.20
2023-04-07T16:21:56.179Z,11.20
2023-04-07T16:24:24.285Z,11.10
2023-04-07T16:26:55.795Z,11.10
2023-04-07T16:29:23.905Z,11.10
2023-04-07T16:31:52.189Z,10.90
2023-04-07T16:34:20.737Z,10.80
2023-04-07T16:36:50.335Z,10.90
2023-04-07T16:39:18.842Z,10.90
2023-04-07T16:41:46.861Z,10.80
2023-04-07T16:44:16.322Z,10.80
2023-04-07T16:46:44.464Z,10.70
2023-04-07T16:49:12.587Z,10.50
2023-04-07T16:51:40.858Z,10.70
2023-04-07T16:54:08.980Z,10.60
2023-04-07T16:56:37.040Z,10.80
2023-04-07T16:59:05.119Z,10.50
2023-04-07T17:01:34.719Z,10.50
2023-04-07T17:04:02.899Z,10.40
2023-04-07T17:06:31.045Z,10.40
2023-04-07T17:08:59.073Z,10.40
2023-04-07T17:11:27.108Z,10.30
2023-04-07T17:13:57.510Z,10.20
2023-04-07T17:16:26.171Z,10.10
2023-04-07T17:18:55.685Z,9.90
2023-04-07T17:21:23.795Z,9.60
2023-04-07T17:23:57.281Z,10.00
2023-04-07T17:26:26.159Z,9.70
2023-04-07T17:28:54.299Z,10.10
2023-04-07T17:31:22.439Z,10.50
2023-04-07T17:33:51.783Z,9.90
2023-04-07T17:36:21.298Z,9.80
2023-04-07T17:38:49.370Z,9.80
2023-04-07T17:41:17.539Z,9.80
2023-04-07T17:43:45.904Z,9.70
2023-04-07T17:46:13.988Z,9.60
2023-04-07T17:48:44.562Z,9.60
2023-04-07T17:51:14.044Z,9.60
2023-04-07T17:53:43.676Z,9.70
2023-04-07T17:56:12.643Z,9.60
2023-04-07T17:58:40.765Z,9.60
2023-04-07T18:01:10.638Z,9.60
2023-04-07T18:03:39.082Z,9.60
2023-04-07T18:06:09.616Z,9.40
2023-04-07T18:08:37.750Z,9.40
2023-04-07T18:11:07.456Z,9.30
2023-04-07T18:13:35.520Z,8.80
2023-04-07T18:16:07.761Z,9.50
2023-04-07T18:18:36.331Z,9.60
2023-04-07T18:21:04.859Z,9.50
2023-04-07T18:23:37.056Z,9.30
2023-04-07T18:26:07.098Z,9.40
2023-04-07T18:28:35.904Z,9.30
2023-04-07T18:31:06.587Z,9.40
2023-04-07T18:33:35.056Z,9.40
2023-04-07T18:36:05.054Z,9.40
2023-04-07T18:38:33.193Z,9.40
2023-04-07T18:41:01.686Z,9.40
2023-04-07T18:43:31.425Z,9.40
2023-04-07T18:46:00.037Z,9.20
2023-04-07T18:48:28.578Z,9.40
2023-04-07T18:50:56.946Z,9.20
2023-04-07T18:53:30.940Z,9.20
2023-04-07T18:55:59.724Z,9.30
2023-04-07T18:58:27.921Z,9.30
2023-04-07T19:00:58.393Z,9.30
2023-04-07T19:03:27.226Z,9.30
2023-04-07T19:05:55.543Z,9.20
2023-04-07T19:08:23.553Z,9.10
2023-04-07T19:10:51.512Z,9.20
2023-04-07T19:13:20.375Z,9.90
2023-04-07T19:15:48.734Z,9.20
2023-04-07T19:18:18.449Z,9.20
2023-04-07T19:20:47.175Z,9.10
2023-04-07T19:23:15.586Z,9.10
2023-04-07T19:25:45.502Z,9.10
2023-04-07T19:28:14.055Z,9.10
2023-04-07T19:30:42.215Z,9.00
2023-04-07T19:33:10.990Z,9.00
2023-04-07T19:35:40.556Z,9.00
2023-04-07T19:38:08.627Z,8.90
2023-04-07T19:40:37.617Z,9.00
2023-04-07T19:43:05.707Z,9.10
2023-04-07T19:45:33.822Z,8.90
2023-04-07T19:48:02.085Z,8.80
2023-04-07T19:50:30.192Z,8.80
2023-04-07T19:52:59.690Z,8.80
2023-04-07T19:55:27.771Z,9.40
2023-04-07T19:57:55.810Z,8.70
2023-04-07T20:00:23.893Z,8.80
2023-04-07T20:02:52.138Z,8.70
2023-04-07T20:05:21.475Z,8.80
2023-04-07T20:07:49.560Z,8.80
2023-04-07T20:10:19.122Z,8.80
2023-04-07T20:12:47.348Z,8.80
2023-04-07T20:15:15.555Z,8.70
2023-04-07T20:17:45.695Z,8.70
2023-04-07T20:20:13.871Z,8.60
2023-04-07T20:22:42.089Z,8.60
2023-04-07T20:25:10.419Z,7.20
2023-04-07T20:27:40.237Z,8.60
2023-04-07T20:30:09.390Z,8.60
2023-04-07T20:32:37.934Z,8.70
2023-04-07T20:35:06.977Z,8.70
2023-04-07T20:37:35.763Z,7.20
2023-04-07T20:40:04.302Z,8.60
2023-04-07T20:42:32.434Z,8.60
2023-04-07T20:45:04.771Z,8.60
2023-04-07T20:47:36.159Z,8.60
2023-04-07T20:50:04.825Z,8.40
2023-04-07T20:52:33.085Z,8.40
2023-04-07T20:55:01.329Z,8.50
2023-04-07T20:57:29.498Z,8.50
2023-04-07T20:59:57.606Z,8.40
2023-04-07T21:02:27.154Z,8.50
2023-04-07T21:04:55.496Z,8.40
2023-04-07T21:07:23.739Z,8.40
2023-04-07T21:09:52.246Z,8.20
2023-04-07T21:12:20.300Z,8.10
2023-04-07T21:14:48.656Z,8.20
2023-04-07T21:17:16.834Z,8.20
2023-04-07T21:19:46.459Z,8.10
2023-04-07T21:22:14.512Z,8.00
2023-04-07T21:24:43.077Z,8.10
2023-04-07T21:27:11.781Z,8.00
2023-04-07T21:35:23.812Z,7.70
2023-04-07T21:37:51.921Z,7.80
2023-04-07T21:40:20.477Z,7.70
2023-04-07T21:42:48.615Z,7.70
2023-04-07T21:45:17.544Z,7.60
2023-04-07T21:47:46.548Z,7.50
2023-04-07T21:50:14.798Z,7.50
2023-04-07T21:52:44.216Z,7.50
2023-04-07T21:55:12.584Z,7.50
2023-04-07T21:57:40.708Z,7.40
2023-04-07T22:00:10.667Z,7.40
2023-04-07T22:02:39.115Z,7.40
2023-04-07T22:05:07.983Z,7.30
2023-04-07T22:07:36.243Z,7.20
2023-04-07T22:10:06.600Z,7.10
2023-04-07T22:12:34.715Z,7.20
2023-04-07T22:15:02.833Z,7.10
2023-04-07T22:17:31.756Z,7.30
2023-04-07T22:19:59.746Z,7.20
2023-04-07T22:22:27.793Z,7.20
2023-04-07T22:24:56.070Z,7.00
2023-04-07T22:27:27.778Z,7.10
2023-04-07T22:29:56.024Z,7.10
2023-04-07T22:32:24.101Z,7.30
2023-04-07T22:34:52.167Z,6.90
2023-04-07T22:37:20.350Z,6.90
2023-04-07T22:39:48.373Z,6.90
2023-04-07T22:42:16.486Z,7.00
2023-04-07T22:44:46.391Z,6.90
2023-04-07T22:47:48.917Z,7.90
2023-04-07T22:50:17.886Z,6.90
2023-04-07T22:52:45.899Z,6.80
2023-04-07T22:55:13.948Z,6.90
2023-04-07T22:57:41.988Z,7.00
2023-04-07T23:00:12.826Z,6.80
2023-04-07T23:02:40.933Z,6.80
2023-04-07T23:05:10.438Z,6.60
2023-04-07T23:07:38.619Z,6.70
2023-04-07T23:10:09.425Z,6.30
2023-04-07T23:12:38.108Z,6.70
2023-04-07T23:15:07.008Z,6.50
2023-04-07T23:17:36.862Z,6.40
2023-04-07T23:20:05.299Z,6.40
2023-04-07T23:22:33.509Z,6.20
2023-04-07T23:25:01.623Z,6.30
2023-04-07T23:27:29.658Z,6.30
2023-04-07T23:29:58.165Z,6.40
2023-04-07T23:32:26.329Z,6.40
2023-04-07T23:34:55.978Z,6.70
2023-04-07T23:37:24.056Z,6.40
2023-04-07T23:39:53.192Z,6.30
2023-04-07T23:42:21.412Z,6.40
2023-04-07T23:44:49.433Z,6.30
2023-04-07T23:47:17.661Z,6.20
2023-04-07T23:49:45.922Z,6.20
2023-04-07T23:52:16.543Z,6.30
2023-04-07T23:54:44.945Z,6.30
2023-04-07T23:57:13.140Z,6.20
2023-04-07T23:59:41.224Z,6.10
